Latest Coastal Weather Observations for Robe Airport

IDV60701

Issued at 1:11 am EST Tuesday 25 April 2017 (issued every 10 minutes, with the page automatically refreshed every 10 minutes)

About coastal observations | Map of coastal stations | Coastal observations for VIC | Marine services | Other Formats
Station Details ID: 026105 Name: ROBE AIRFIELD Lat: -37.18 Lon: 139.81 Height: 3.0 m
Data from the previous 72 hours. | See also: Recent months at Robe Airport
Date/Time
EST
Temp
°C
Wind Pressure Rain since
9am
mm
Weather Cloud Vis
km
Sea
Height
m
Swell
Dir  Spd
kts
Gust
kts
hPa Trend Height
m
Period
s
Dir
25/01:00am 14.2 SSE 1 2 1011.2 - 5.6 - - - - - - -
25/12:30am 14.1 CALM 0 0 1011.3 - 5.6 - - - - - - -
25/12:00am 14.7 SSE 3 5 1011.3 - 5.6 - - - - - - -
 
Date/Time
EST
Temp
°C
Wind Pressure Rain since
9am
mm
Weather Cloud Vis
km
Sea
Height
m
Swell
Dir  Spd
kts
Gust
kts
hPa Trend Height
m
Period
s
Dir
24/11:30pm 14.9 SSE 1 2 1011.2 - 5.6 - - - - - - -
24/11:00pm 15.2 SSE 2 3 1011.9 - 5.6 - - - - - - -
24/10:30pm 15.3 SSE 2 4 1012.1 - 5.6 - - - - - - -
24/10:00pm 15.4 SE 3 3 1012.1 - 5.6 - - - - - - -
24/09:30pm 15.6 SE 4 6 1012.3 - 5.6 Recent precip. - - - - - -
24/09:00pm 15.7 SE 4 5 1012.4 - 5.6 - - - - - - -
24/08:30pm 15.8 SE 3 5 1012.7 - 5.4 - - - - - - -
24/08:00pm 15.8 SSE 3 6 1012.6 - 5.2 - - - - - - -
24/07:30pm 15.9 SSE 4 6 1012.8 - 4.2 - - - - - - -
24/07:00pm 16.0 SE 3 5 1012.8 - 3.2 - - - - - - -
24/06:30pm 16.4 E 2 3 1012.8 - 2.8 - - - - - - -
24/06:00pm 16.6 E 3 4 1013.1 - 2.8 - - - - - - -
24/05:30pm 16.8 E 2 3 1012.9 - 2.8 - - - - - - -
24/05:00pm 17.0 E 4 6 1012.7 - 2.8 - - - - - - -
24/04:30pm 17.3 E 4 6 1012.7 - 2.8 - - - - - - -
24/04:00pm 17.6 E 5 7 1012.9 - 2.8 - - - - - - -
24/03:30pm 18.0 E 3 4 1013.4 - 2.8 - - - - - - -
24/03:00pm 18.0 ESE 4 7 1013.5 - 2.8 - - - - - - -
24/02:30pm 18.3 ENE 6 7 1013.7 - 2.8 - - - - - - -
24/02:00pm 18.0 E 5 7 1014.2 - 2.8 - - - - - - -
24/01:30pm 17.5 E 5 9 1014.6 - 2.8 - - - - - - -
24/01:00pm 16.7 ENE 4 7 1015.6 - 2.8 - - - - - - -
24/12:30pm 16.5 NE 6 9 1016.0 - 2.8 - - - - - - -
24/12:00pm 15.8 NE 6 9 1016.4 - 2.8 - - - - - - -
24/11:30am 15.1 ENE 6 9 1016.9 - 2.8 - - - - - - -
24/11:00am 14.3 E 6 8 1017.6 - 2.6 - - - - - - -
24/10:30am 13.9 E 2 3 1018.2 - 2.0 - - - - - - -
24/10:00am 13.6 ESE 2 3 1018.7 - 0.6 - - - - - - -
24/09:30am 13.6 ESE 1 3 1019.0 - 0.6 Rain - - - - - -
24/09:00am 13.5 E 3 3 1019.0 - 0.2 - - - - - - -
24/08:30am 13.4 E 2 3 1019.4 - 0.2 - - - - - - -
24/08:00am 13.3 ESE 2 3 1019.1 - 0.2 - - - - - - -
24/07:30am 13.1 ESE 3 4 1019.0 - 0.2 - - - - - - -
24/07:00am 13.1 ESE 4 6 1019.1 - 0.2 - - - - - - -
24/06:30am 13.0 ESE 4 6 1019.3 - 0.2 - - - - - - -
24/06:00am 13.0 ESE 4 7 1019.4 - 0.2 - - - - - - -
24/05:30am 12.3 ESE 3 5 1019.4 - 0.2 - - - - - - -
24/05:00am 12.7 ESE 5 7 1019.2 - 0.2 - - - - - - -
24/04:30am 12.7 ESE 4 6 1019.8 - 0.2 - - - - - - -
24/04:00am 13.1 E 6 10 1019.6 - 0.2 - - - - - - -
24/03:30am 13.1 SE 6 9 1019.7 - 0.2 - - - - - - -
24/03:00am 12.9 ESE 5 7 1020.1 - 0.2 - - - - - - -
24/02:30am 13.4 SE 7 9 1020.6 - 0.2 - - - - - - -
24/02:00am 13.5 ESE 5 8 1021.1 - 0.2 - - - - - - -
24/01:30am 13.6 SE 5 8 1021.2 - 0.2 - - - - - - -
24/01:00am 13.5 SE 5 8 1021.7 - 0.2 - - - - - - -
24/12:30am 13.5 SE 5 7 1022.0 - 0.0 - - - - - - -
24/12:00am 13.6 SE 5 7 1022.1 - 0.0 - - - - - - -
 
Date/Time
EST
Temp
°C
Wind Pressure Rain since
9am
mm
Weather Cloud Vis
km
Sea
Height
m
Swell
Dir  Spd
kts
Gust
kts
hPa Trend Height
m
Period
s
Dir
23/11:30pm 13.6 SE 6 8 1022.1 - 0.0 - - - - - - -
23/11:00pm 13.5 SE 5 7 1022.2 - 0.0 - - - - - - -
23/10:30pm 13.9 SE 6 9 1022.5 - 0.0 - - - - - - -
23/10:00pm 14.1 ESE 5 7 1022.7 - 0.0 - - - - - - -
23/09:30pm 14.4 SE 6 8 1022.6 - 0.0 - - - - - - -
23/09:00pm 14.8 SE 5 8 1022.5 - 0.0 - - - - - - -
23/08:30pm 15.2 SE 6 9 1022.4 - 0.0 - - - - - - -
23/08:00pm 15.8 SE 7 11 1022.6 - 0.0 - - - - - - -
23/07:30pm 16.0 SE 7 9 1022.6 - 0.0 - - - - - - -
23/07:00pm 16.5 SE 8 12 1022.5 - 0.0 - - - - - - -
23/06:30pm 16.6 SSE 8 13 1022.2 - 0.0 - - - - - - -
23/06:00pm 16.6 SSE 8 11 1022.2 - 0.0 - - - - - - -
23/05:30pm 17.7 S 7 9 1022.1 - 0.0 - - - - - - -
23/05:00pm 18.9 SSE 8 12 1022.0 - 0.0 - - - - - - -
23/04:30pm 21.3 SE 6 9 1022.0 - 0.0 - - - - - - -
23/04:00pm 20.4 SE 5 7 1022.0 - 0.0 - - - - - - -
23/03:30pm 21.2 SE 6 8 1021.8 - 0.0 - - - - - - -
23/03:00pm 22.2 E 6 11 1021.9 - 0.0 - - - - - - -
23/02:30pm 22.0 ESE 5 8 1022.0 - 0.0 - - - - - - -
23/02:00pm 21.9 E 8 11 1022.0 - 0.0 - - - - - - -
23/01:30pm 20.6 ESE 9 14 1022.4 - 0.0 - - - - - - -
23/01:00pm 20.6 E 10 13 1022.9 - 0.0 - - - - - - -
23/12:30pm 19.8 ESE 10 13 1023.3 - 0.0 - - - - - - -
23/12:00pm 19.4 ESE 9 12 1023.9 - 0.0 - - - - - - -
23/11:30am 18.2 ESE 7 10 1024.6 - 0.0 - - - - - - -
23/11:00am 18.4 ESE 9 11 1024.8 - 0.0 - - - - - - -
23/10:30am 17.9 ESE 11 15 1024.8 - 0.0 - - - - - - -
23/10:00am 17.3 SE 11 14 1024.8 - 0.0 - - - - - - -
23/09:30am 16.4 SE 9 12 1025.1 - 0.2 - - - - - - -
23/09:00am 16.7 SE 8 11 1025.1 - 0.2 - - - - - - -
23/08:30am 15.6 SE 6 10 1025.0 - 0.2 - - - - - - -
23/08:00am 14.6 ESE 3 5 1024.8 - 0.2 - - - - - - -
23/07:30am 13.7 ESE 3 3 1024.4 - 0.2 - - - - - - -
23/07:00am 14.0 ESE 2 3 1024.2 - 0.2 - - - - - - -
23/06:30am 14.6 ESE 4 6 1024.0 - 0.2 - - - - - - -
23/06:00am 15.1 ESE 4 7 1023.9 - 0.2 - - - - - - -
23/05:30am 14.9 ESE 4 5 1023.6 - 0.2 - - - - - - -
23/05:00am 14.7 ESE 4 5 1023.4 - 0.2 - - - - - - -
23/04:30am 15.1 SE 3 4 1023.4 - 0.2 - - - - - - -
23/04:00am 15.3 SE 4 5 1023.4 - 0.2 - - - - - - -
23/03:30am 15.4 SE 4 6 1023.5 - 0.2 - - - - - - -
23/03:00am 15.5 SE 3 5 1023.7 - 0.2 - - - - - - -
23/02:30am 15.6 SE 4 6 1023.8 - 0.2 - - - - - - -
23/02:00am 15.8 SE 5 7 1023.9 - 0.2 - - - - - - -
23/01:30am 15.9 SE 5 8 1024.1 - 0.2 - - - - - - -
23/01:00am 16.0 SE 5 8 1024.2 - 0.2 - - - - - - -
23/12:30am 16.0 ESE 5 7 1024.3 - 0.2 - - - - - - -
23/12:00am 16.0 SE 5 8 1024.4 - 0.2 - - - - - - -
 
Date/Time
EST
Temp
°C
Wind Pressure Rain since
9am
mm
Weather Cloud Vis
km
Sea
Height
m
Swell
Dir  Spd
kts
Gust
kts
hPa Trend Height
m
Period
s
Dir
22/11:30pm 16.0 SE 7 10 1024.5 - 0.2 - - - - - - -
22/11:00pm 16.1 SE 8 11 1024.6 - 0.2 - - - - - - -
22/10:30pm 16.1 SE 8 12 1024.5 - 0.2 - - - - - - -
22/10:00pm 16.2 SE 7 11 1024.5 - 0.2 - - - - - - -
22/09:30pm 16.3 SE 7 9 1024.4 - 0.2 - - - - - - -
22/09:00pm 16.4 SE 6 10 1024.2 - 0.2 - - - - - - -
22/08:30pm 16.6 SE 7 11 1024.0 - 0.2 - - - - - - -
22/08:00pm 16.7 SE 7 10 1023.9 - 0.2 - - - - - - -
22/07:30pm 16.9 SSE 9 13 1023.8 - 0.2 - - - - - - -
22/07:00pm 16.7 SSE 7 10 1023.5 - 0.2 - - - - - - -
22/06:30pm 16.7 S 8 11 1023.3 - 0.2 Recent precip. - - - - - -
22/06:00pm 17.1 SSE 9 14 1023.0 - 0.0 - - - - - - -
22/05:30pm 17.4 SSE 8 11 1023.0 - 0.0 - - - - - - -
22/05:00pm 17.9 SSE 9 12 1022.8 - 0.0 - - - - - - -
22/04:30pm 18.3 SSE 8 12 1022.7 - 0.0 - - - - - - -
22/04:00pm 18.4 SSE 9 11 1022.7 - 0.0 - - - - - - -
22/03:30pm 18.6 S 9 13 1022.7 - 0.0 - - - - - - -
22/03:00pm 18.7 SSW 9 11 1022.8 - 0.0 - - - - - - -
22/02:30pm 18.5 SSW 7 10 1022.9 - 0.0 - - - - - - -
22/02:00pm 18.6 S 8 11 1023.0 - 0.0 - - - - - - -
22/01:30pm 19.0 SSW 7 10 1023.1 - 0.0 - - - - - - -
22/01:00pm 18.7 S 7 9 1023.2 - 0.0 - - - - - - -
22/12:30pm 19.3 S 7 10 1023.5 - 0.0 - - - - - - -
22/12:00pm 18.9 S 7 9 1023.7 - 0.0 - - - - - - -
22/11:30am 18.2 S 8 9 1024.1 - 0.0 - - - - - - -
22/11:00am 18.2 SE 5 8 1024.3 - 0.0 - - - - - - -
22/10:30am 17.9 S 6 8 1024.2 - 0.0 - - - - - - -
22/10:00am 17.9 SSW 5 7 1024.2 - 0.0 - - - - - - -
22/09:30am 17.4 SW 3 5 1024.2 - 0.6 - - - - - - -
22/09:00am 17.0 SSW 3 5 1024.0 - 0.6 - - - - - - -
22/08:30am 16.3 CALM 0 0 1023.7 - 0.6 - - - - - - -
22/08:00am 14.6 CALM 0 0 1023.4 - 0.6 - - - - - - -
22/07:30am 14.3 CALM 0 0 1023.1 - 0.6 - - - - - - -
22/07:00am 14.8 CALM 0 0 1022.8 - 0.6 - - - - - - -
22/06:30am 15.5 SSW 1 3 1022.6 - 0.6 - - - - - - -
22/06:00am 16.0 SSW 2 3 1022.4 - 0.6 - - - - - - -
22/05:30am 16.2 SSW 1 3 1022.3 - 0.6 - - - - - - -
22/05:00am 16.0 CALM 0 0 1022.1 - 0.6 - - - - - - -
22/04:30am 16.1 CALM 0 0 1021.8 - 0.6 - - - - - - -
22/04:00am 16.0 SSW 2 2 1021.7 - 0.6 - - - - - - -
22/03:30am 16.0 SSW 1 1 1021.8 - 0.6 - - - - - - -
22/03:00am 16.1 SSW 1 1 1021.9 - 0.6 - - - - - - -
22/02:30am 16.1 SSW 2 3 1022.0 - 0.6 - - - - - - -
22/02:00am 15.9 CALM 0 0 1022.0 - 0.6 - - - - - - -

Other Formats:

Comma delimited format used in spreadsheet applications
http://www.bom.gov.au/fwo/IDV60701/IDV60701.95816.axf

JavaScript Object Notation format (JSON) in row-major order
http://www.bom.gov.au/fwo/IDV60701/IDV60701.95816.json